Hovedside
METAR-TAF:

METAR-TAF

Lufthavner :

Chongqing Jiangbei internasjonale lufthavn

Chongqing, Kina

breddegrad: 29-31N, lengdegrad: 106-29E, høyde over havet: 351 m

Gjeldene værobservasjon

Denne rapporten ble laget for 33 minutter siden, klokken 19:00 UTC
Vind 2 kt fra skiftende retning
Temperatur 15°C
Luftfuktighet 82%
Trykk 1014 hPa
Sikt: 8000 m
Overskyet i en høyde av 5000 ft

METAR: ZUCK 151900Z VRB01MPS 8000 OVC050 15/12 Q1014 NOSIG

Tid: 03:33 (19:33 UTC)

Varsel

Denne rapporten ble laget for 4 timer og 25 minutter siden, klokken 15:08 UTC
Varsel gyldig fra 15. klokken 18 UTC til 16. klokken 18 UTC
Vind 4 kt fra Vest-nordvest
Sikt: 6000 m
Spredte skyer i en høyde av 5000 ft

TAF: ZUCK 151508Z 1518/1618 29002MPS 6000 SCT050 TX18/1607Z TN13/1521Z

Værobservasjoner og værvarsel for over 4000 flyplasser (METAR- og TAF-rapporter).

Tilgjengelige stasjoner er representert av de røde og gule prikkene på kartet.

Hold musepekeren over prikken for å se navnet på stasjonen.

Klikk så for å se værobservasjoner og -varsler.

For å forandre kartet kan du klikke på den grønne knappen med svart kryss for å zoome inn, på den grønne knappen med strek for å zoome ut, eller på de grønne pilene for å se tilstøtende kart.


METAR-TAF: